createdAt,value
2017-12-08T00:00:38.974Z,10.00
2017-12-08T00:03:07.241Z,10.00
2017-12-08T00:05:35.567Z,10.00
2017-12-08T00:08:03.837Z,10.00
2017-12-08T00:10:32.144Z,10.00
2017-12-08T00:13:01.183Z,10.00
2017-12-08T00:15:29.777Z,10.00
2017-12-08T00:17:58.064Z,10.10
2017-12-08T00:20:26.342Z,10.10
2017-12-08T00:22:54.655Z,10.10
2017-12-08T00:25:22.936Z,10.20
2017-12-08T00:27:51.247Z,10.30
2017-12-08T00:30:19.539Z,10.40
2017-12-08T00:32:47.930Z,10.60
2017-12-08T00:35:16.193Z,10.70
2017-12-08T00:37:54.408Z,10.80
2017-12-08T00:40:22.671Z,10.90
2017-12-08T00:42:50.983Z,11.10
2017-12-08T00:45:19.270Z,11.10
2017-12-08T00:47:47.529Z,11.10
2017-12-08T00:50:15.841Z,11.10
2017-12-08T00:52:44.136Z,11.10
2017-12-08T00:55:13.183Z,11.10
2017-12-08T00:57:41.448Z,11.10
2017-12-08T01:00:09.737Z,11.10
2017-12-08T01:02:38.024Z,11.00
2017-12-08T01:05:10.272Z,10.90
2017-12-08T01:07:38.580Z,10.90
2017-12-08T01:10:06.856Z,10.70
2017-12-08T01:20:17.624Z,10.20
2017-12-08T01:22:47.049Z,9.70
2017-12-08T01:25:15.345Z,9.70
2017-12-08T01:27:43.661Z,9.60
2017-12-08T01:30:12.000Z,9.50
2017-12-08T01:32:40.313Z,9.30
2017-12-08T01:35:10.207Z,9.30
2017-12-08T01:37:38.558Z,9.10
2017-12-08T01:40:06.924Z,9.10
2017-12-08T01:42:35.224Z,9.00
2017-12-08T01:45:03.529Z,9.00
2017-12-08T01:47:31.843Z,9.00
2017-12-08T01:50:00.911Z,8.90
2017-12-08T01:52:29.252Z,8.90
2017-12-08T01:54:57.565Z,8.90
2017-12-08T01:57:26.730Z,8.80
2017-12-08T01:59:55.047Z,8.80
2017-12-08T02:02:23.358Z,8.80
2017-12-08T02:04:52.637Z,8.80
2017-12-08T02:07:20.940Z,8.80
2017-12-08T02:09:49.286Z,8.70
2017-12-08T02:12:17.586Z,8.70
2017-12-08T02:14:46.742Z,8.80
2017-12-08T02:17:15.050Z,8.70
2017-12-08T02:19:43.358Z,8.80
2017-12-08T02:22:11.692Z,8.80
2017-12-08T02:24:39.991Z,8.80
2017-12-08T02:27:08.310Z,8.80
2017-12-08T02:29:36.639Z,8.80
2017-12-08T02:32:04.984Z,8.80
2017-12-08T02:34:33.276Z,8.80
2017-12-08T02:37:01.581Z,8.80
2017-12-08T02:39:29.918Z,8.90
2017-12-08T02:41:58.217Z,8.90
2017-12-08T02:44:26.980Z,8.90
2017-12-08T02:46:55.295Z,8.90
2017-12-08T02:49:23.637Z,8.90
2017-12-08T02:51:51.941Z,8.90
2017-12-08T02:54:25.986Z,9.00
2017-12-08T02:56:55.045Z,9.00
2017-12-08T02:59:23.359Z,8.90
2017-12-08T03:01:52.456Z,9.00
2017-12-08T03:04:21.560Z,8.90
2017-12-08T03:06:50.791Z,8.90
2017-12-08T03:09:19.848Z,8.90
2017-12-08T03:11:48.992Z,8.90
2017-12-08T03:14:17.328Z,8.90
2017-12-08T03:16:46.409Z,8.90
2017-12-08T03:19:14.742Z,8.90
2017-12-08T03:21:43.037Z,8.90
2017-12-08T03:24:11.383Z,8.90
2017-12-08T03:26:39.731Z,8.90
2017-12-08T03:29:08.419Z,9.00
2017-12-08T03:31:37.488Z,9.00
2017-12-08T03:34:05.793Z,8.90
2017-12-08T03:36:35.877Z,9.00
2017-12-08T03:39:04.194Z,9.00
2017-12-08T03:41:33.276Z,9.00
2017-12-08T03:44:01.599Z,9.00
2017-12-08T03:46:29.982Z,9.00
2017-12-08T03:48:58.280Z,9.00
2017-12-08T03:51:26.593Z,9.00
2017-12-08T03:53:54.933Z,9.00
2017-12-08T03:56:23.262Z,9.00
2017-12-08T03:58:52.351Z,9.00
2017-12-08T04:01:20.665Z,9.00
2017-12-08T04:03:49.012Z,9.00
2017-12-08T04:06:18.084Z,9.10
2017-12-08T04:08:46.408Z,9.00
2017-12-08T04:11:14.789Z,9.10
2017-12-08T04:13:43.086Z,9.10
2017-12-08T04:16:11.435Z,9.10
2017-12-08T04:18:40.489Z,9.10
2017-12-08T04:21:08.842Z,9.10
2017-12-08T04:23:37.143Z,9.10
2017-12-08T04:26:05.444Z,9.10
2017-12-08T04:28:33.793Z,9.20
2017-12-08T04:31:02.103Z,9.20
2017-12-08T04:33:30.419Z,9.20
2017-12-08T04:35:58.850Z,9.20
2017-12-08T04:38:27.176Z,9.30
2017-12-08T04:40:55.457Z,9.30
2017-12-08T04:43:23.832Z,9.20
2017-12-08T04:45:52.141Z,9.20
2017-12-08T04:48:20.443Z,9.30
2017-12-08T04:50:48.754Z,9.30
2017-12-08T04:53:17.857Z,9.30
2017-12-08T04:55:46.204Z,9.30
2017-12-08T04:58:14.505Z,9.30
2017-12-08T05:00:43.583Z,9.30
2017-12-08T05:03:11.900Z,9.30
2017-12-08T05:05:40.230Z,9.30
2017-12-08T05:08:08.548Z,9.30
2017-12-08T05:10:36.853Z,9.30
2017-12-08T05:13:05.193Z,9.30
2017-12-08T05:15:34.286Z,9.30
2017-12-08T05:18:04.402Z,9.30
2017-12-08T05:20:32.701Z,9.30
2017-12-08T05:23:01.035Z,9.30
2017-12-08T05:25:29.387Z,9.30
2017-12-08T05:27:57.853Z,9.30
2017-12-08T05:30:26.180Z,9.40
2017-12-08T05:32:56.477Z,9.30
2017-12-08T05:35:24.817Z,9.40
2017-12-08T05:37:53.880Z,9.40
2017-12-08T05:40:22.190Z,9.40
2017-12-08T05:42:50.543Z,9.40
2017-12-08T05:45:18.840Z,9.30
2017-12-08T05:47:47.979Z,9.30
2017-12-08T05:50:16.290Z,9.30
2017-12-08T05:52:44.642Z,9.30
2017-12-08T05:55:13.046Z,9.30
2017-12-08T05:57:41.340Z,9.30
2017-12-08T06:00:09.670Z,9.30
2017-12-08T06:02:37.980Z,9.30
2017-12-08T06:05:06.359Z,9.40
2017-12-08T06:07:34.661Z,9.30
2017-12-08T06:10:03.779Z,9.40
2017-12-08T06:12:32.108Z,9.40
2017-12-08T06:15:00.404Z,9.40
2017-12-08T06:17:28.762Z,9.40
2017-12-08T06:19:57.127Z,9.40
2017-12-08T06:22:25.469Z,9.50
2017-12-08T06:24:54.560Z,9.40
2017-12-08T06:27:22.938Z,9.40
2017-12-08T06:29:52.009Z,9.50
2017-12-08T06:32:20.320Z,9.40
2017-12-08T06:34:49.437Z,9.40
2017-12-08T06:37:18.134Z,9.40
2017-12-08T06:39:46.473Z,9.40
2017-12-08T06:42:15.535Z,9.40
2017-12-08T06:44:43.872Z,9.50
2017-12-08T06:47:12.179Z,9.50
2017-12-08T06:49:40.485Z,9.40
2017-12-08T06:52:09.601Z,9.40
2017-12-08T06:54:38.669Z,9.40
2017-12-08T06:57:07.020Z,9.40
2017-12-08T06:59:35.317Z,9.40
2017-12-08T07:02:03.685Z,9.40
2017-12-08T07:04:32.005Z,9.30
2017-12-08T07:07:01.111Z,9.30
2017-12-08T07:09:30.172Z,9.30
2017-12-08T07:11:58.480Z,9.30
2017-12-08T07:14:27.579Z,9.20
2017-12-08T07:16:56.718Z,9.30
2017-12-08T07:19:25.051Z,9.20
2017-12-08T07:21:54.685Z,9.20
2017-12-08T07:24:23.062Z,9.20
2017-12-08T07:26:51.444Z,9.20
2017-12-08T07:29:19.804Z,9.20
2017-12-08T07:31:48.217Z,9.10
2017-12-08T07:34:17.556Z,9.30
2017-12-08T07:36:45.880Z,9.20
2017-12-08T07:39:14.217Z,9.20
2017-12-08T07:41:42.569Z,9.20
2017-12-08T07:44:10.881Z,9.20
2017-12-08T07:46:39.197Z,9.20
2017-12-08T07:49:07.535Z,9.30
2017-12-08T07:51:35.861Z,9.20
2017-12-08T07:54:04.189Z,9.20
2017-12-08T07:56:40.545Z,9.00
2017-12-08T07:59:08.904Z,9.30
2017-12-08T08:01:37.217Z,9.30
2017-12-08T08:04:05.543Z,9.20
2017-12-08T08:06:34.485Z,9.20
2017-12-08T08:09:02.790Z,9.20
2017-12-08T08:11:31.886Z,9.20
2017-12-08T08:14:00.236Z,9.20
2017-12-08T08:16:28.600Z,9.20
2017-12-08T08:18:57.023Z,9.20
2017-12-08T08:21:25.366Z,9.20
2017-12-08T08:24:10.502Z,9.20
2017-12-08T08:26:38.864Z,9.20
2017-12-08T08:29:07.938Z,9.20
2017-12-08T08:31:36.245Z,9.20
2017-12-08T08:34:08.404Z,9.20
2017-12-08T08:36:36.733Z,9.30
2017-12-08T08:39:05.069Z,9.30
2017-12-08T08:41:33.385Z,9.30
2017-12-08T08:44:01.773Z,9.30
2017-12-08T08:46:30.085Z,9.20
2017-12-08T08:48:58.408Z,9.20
2017-12-08T08:51:26.752Z,9.20
2017-12-08T08:53:55.839Z,9.00
2017-12-08T08:56:24.177Z,9.00
2017-12-08T08:58:52.485Z,8.90
2017-12-08T09:01:20.875Z,8.80
2017-12-08T09:03:49.188Z,8.60
2017-12-08T09:06:17.600Z,8.50
2017-12-08T09:08:45.919Z,8.40
2017-12-08T09:11:14.259Z,8.30
2017-12-08T09:13:42.608Z,8.30
2017-12-08T09:16:10.921Z,8.30
2017-12-08T09:18:39.246Z,8.30
2017-12-08T09:21:08.324Z,8.30
2017-12-08T09:23:36.943Z,8.30
2017-12-08T09:26:05.287Z,8.30
2017-12-08T09:28:33.651Z,8.40
2017-12-08T09:31:01.990Z,8.40
2017-12-08T09:33:30.307Z,8.40
2017-12-08T09:35:58.665Z,8.40
2017-12-08T09:38:26.984Z,8.40
2017-12-08T09:40:55.722Z,8.50
2017-12-08T09:43:24.024Z,8.50
2017-12-08T09:45:52.330Z,8.60
2017-12-08T09:48:22.460Z,8.70
2017-12-08T09:50:51.542Z,8.70
2017-12-08T09:53:19.880Z,8.70
2017-12-08T09:55:48.215Z,8.70
2017-12-08T09:58:17.589Z,8.70
2017-12-08T10:00:45.947Z,8.70
2017-12-08T10:03:14.256Z,8.70
2017-12-08T10:05:42.617Z,8.70
2017-12-08T10:08:10.995Z,8.70
2017-12-08T10:10:39.331Z,8.80
2017-12-08T10:13:08.387Z,9.10
2017-12-08T10:15:36.729Z,9.00
2017-12-08T10:18:05.070Z,9.20
2017-12-08T10:20:34.146Z,9.50
2017-12-08T10:23:06.944Z,9.40
2017-12-08T10:25:35.294Z,9.50
2017-12-08T10:28:03.658Z,9.50
2017-12-08T10:30:33.892Z,9.50
2017-12-08T10:33:02.287Z,9.50
2017-12-08T10:35:30.651Z,9.50
2017-12-08T10:37:58.966Z,9.50
2017-12-08T10:40:27.662Z,9.40
2017-12-08T10:42:56.747Z,9.30
2017-12-08T10:45:25.056Z,9.40
2017-12-08T10:47:53.379Z,9.30
2017-12-08T10:50:21.690Z,9.30
2017-12-08T10:52:51.116Z,9.20
2017-12-08T10:55:29.863Z,9.20
2017-12-08T10:57:58.550Z,9.20
2017-12-08T11:00:32.615Z,9.10
2017-12-08T11:03:01.748Z,9.10
2017-12-08T11:05:30.057Z,9.10
2017-12-08T11:07:58.388Z,9.10
2017-12-08T11:10:26.730Z,9.10
2017-12-08T11:12:55.048Z,9.20
2017-12-08T11:15:23.402Z,9.30
2017-12-08T11:17:51.699Z,9.30
2017-12-08T11:20:20.809Z,9.30
2017-12-08T11:22:49.171Z,9.30
2017-12-08T11:25:18.234Z,9.20
2017-12-08T11:27:46.566Z,9.20
2017-12-08T11:30:14.877Z,9.10
2017-12-08T11:32:43.231Z,9.00
2017-12-08T11:35:11.589Z,9.00
2017-12-08T11:37:39.894Z,9.10
2017-12-08T11:40:08.235Z,9.20
2017-12-08T11:42:37.296Z,9.70
2017-12-08T11:45:05.661Z,9.70
2017-12-08T11:47:34.002Z,9.60
2017-12-08T11:50:03.107Z,8.30
2017-12-08T11:52:31.447Z,8.30
2017-12-08T11:54:59.741Z,7.60
2017-12-08T11:57:31.901Z,6.90
2017-12-08T12:00:00.209Z,6.80
2017-12-08T12:02:28.577Z,6.70
2017-12-08T12:04:57.640Z,6.50
2017-12-08T12:07:25.950Z,6.50
2017-12-08T12:09:55.080Z,6.70
2017-12-08T12:12:23.387Z,6.80
2017-12-08T12:14:51.721Z,7.70
2017-12-08T12:17:20.047Z,9.10
2017-12-08T12:19:48.406Z,10.80
2017-12-08T12:22:16.730Z,12.30
2017-12-08T12:24:45.912Z,14.50
2017-12-08T12:27:14.257Z,14.50
2017-12-08T12:29:42.592Z,15.50
2017-12-08T12:32:11.725Z,16.90
2017-12-08T12:34:40.058Z,16.90
2017-12-08T12:37:08.363Z,17.40
2017-12-08T12:39:36.720Z,17.70
2017-12-08T12:42:05.036Z,17.70
2017-12-08T12:44:33.405Z,17.90
2017-12-08T12:47:01.762Z,17.70
2017-12-08T12:49:30.928Z,17.50
2017-12-08T12:51:59.235Z,17.50
2017-12-08T12:54:28.315Z,16.10
2017-12-08T12:56:56.647Z,16.10
2017-12-08T12:59:24.953Z,14.90
2017-12-08T13:01:53.322Z,13.80
2017-12-08T13:04:21.625Z,12.90
2017-12-08T13:06:49.985Z,12.20
2017-12-08T13:09:18.299Z,11.50
2017-12-08T13:11:47.418Z,10.40
2017-12-08T13:14:16.515Z,9.90
2017-12-08T13:16:45.347Z,9.90
2017-12-08T13:19:13.684Z,9.50
2017-12-08T13:21:42.002Z,9.10
2017-12-08T13:24:10.253Z,8.80
2017-12-08T13:26:38.549Z,8.50
2017-12-08T13:29:07.593Z,8.00
2017-12-08T13:31:36.658Z,7.90
2017-12-08T13:34:04.940Z,7.90
2017-12-08T13:36:34.500Z,7.70
2017-12-08T13:39:06.494Z,7.70
2017-12-08T13:41:35.273Z,7.60
2017-12-08T13:44:03.560Z,7.50
2017-12-08T13:46:31.830Z,7.50
2017-12-08T13:49:00.134Z,7.40
2017-12-08T13:51:28.391Z,7.30
2017-12-08T14:07:30.814Z,7.10
2017-12-08T14:09:59.882Z,7.00
2017-12-08T14:12:28.394Z,6.90
2017-12-08T14:14:57.453Z,6.90
2017-12-08T14:17:25.730Z,6.90
2017-12-08T14:19:55.316Z,6.80
2017-12-08T14:22:24.922Z,6.70
2017-12-08T14:24:53.222Z,6.70
2017-12-08T14:27:21.546Z,6.70
2017-12-08T14:29:50.597Z,6.70
2017-12-08T14:32:18.918Z,6.60
2017-12-08T14:34:47.933Z,6.60
2017-12-08T14:37:16.251Z,6.60
2017-12-08T14:39:44.591Z,6.50
2017-12-08T14:42:12.876Z,6.50
2017-12-08T14:44:48.331Z,6.50
2017-12-08T14:47:16.634Z,6.50
2017-12-08T14:49:47.424Z,6.40
2017-12-08T14:52:16.755Z,6.40
2017-12-08T14:54:45.138Z,6.40
2017-12-08T14:57:13.521Z,6.30
2017-12-08T14:59:41.888Z,6.30
2017-12-08T15:02:10.176Z,6.30
2017-12-08T15:04:39.722Z,6.30
2017-12-08T15:07:08.092Z,6.40
2017-12-08T15:09:36.478Z,6.50
2017-12-08T15:12:04.772Z,6.50
2017-12-08T15:14:33.129Z,6.60
2017-12-08T15:17:02.379Z,6.60
2017-12-08T15:19:30.693Z,6.60
2017-12-08T15:21:58.957Z,6.60
2017-12-08T15:24:28.195Z,6.50
2017-12-08T15:26:56.463Z,6.40
2017-12-08T15:29:24.739Z,6.40
2017-12-08T15:32:00.365Z,6.30
2017-12-08T15:34:28.687Z,6.20
2017-12-08T15:36:57.751Z,6.10
2017-12-08T15:39:26.016Z,6.10
2017-12-08T15:41:54.337Z,6.00
2017-12-08T15:44:24.280Z,6.00
2017-12-08T15:46:52.681Z,6.00
2017-12-08T15:49:20.963Z,6.00
2017-12-08T15:51:49.273Z,6.00
2017-12-08T15:57:17.894Z,6.10
2017-12-08T15:59:52.312Z,6.10
2017-12-08T16:02:24.813Z,6.20
2017-12-08T16:04:53.430Z,6.20
2017-12-08T16:07:23.922Z,6.20
2017-12-08T16:09:52.956Z,6.20
2017-12-08T16:12:21.475Z,6.20
2017-12-08T16:14:51.053Z,6.30
2017-12-08T16:17:22.446Z,6.30
2017-12-08T16:19:50.822Z,6.40
2017-12-08T16:22:22.639Z,6.40
2017-12-08T16:24:52.488Z,6.50
2017-12-08T16:27:20.806Z,6.50
2017-12-08T16:29:54.731Z,6.60
2017-12-08T16:32:23.053Z,6.60
2017-12-08T16:34:51.331Z,6.60
2017-12-08T16:37:19.641Z,6.60
2017-12-08T16:39:48.721Z,6.60
2017-12-08T16:42:27.666Z,6.60
2017-12-08T16:48:00.015Z,6.60
2017-12-08T16:50:28.306Z,6.60
2017-12-08T16:52:56.627Z,6.50
2017-12-08T16:55:24.975Z,6.50
2017-12-08T16:57:53.262Z,6.50
2017-12-08T17:00:22.442Z,6.40
2017-12-08T17:02:50.820Z,6.40
2017-12-08T17:05:19.111Z,6.40
2017-12-08T17:07:47.382Z,6.40
2017-12-08T17:10:15.829Z,6.40
2017-12-08T17:12:44.148Z,6.40
2017-12-08T17:15:12.387Z,6.30
2017-12-08T17:17:41.459Z,6.30
2017-12-08T17:20:09.713Z,6.30
2017-12-08T17:22:38.794Z,6.30
2017-12-08T17:25:07.060Z,6.20
2017-12-08T17:27:35.747Z,6.20
2017-12-08T17:30:04.135Z,6.20
2017-12-08T17:32:32.391Z,6.20
2017-12-08T17:35:00.738Z,6.20
2017-12-08T17:37:28.978Z,6.10
2017-12-08T17:39:58.083Z,6.10
2017-12-08T17:42:27.122Z,6.10
2017-12-08T17:44:56.207Z,6.10
2017-12-08T17:47:24.516Z,6.00
2017-12-08T17:49:52.791Z,6.10
2017-12-08T17:52:21.097Z,6.00
2017-12-08T17:54:49.782Z,6.00
2017-12-08T17:57:18.070Z,5.90
2017-12-08T17:59:47.102Z,5.90
2017-12-08T18:02:15.436Z,5.90
2017-12-08T18:04:43.920Z,5.80
2017-12-08T18:07:12.956Z,5.80
2017-12-08T18:09:41.254Z,5.80
2017-12-08T18:12:09.546Z,5.70
2017-12-08T18:14:37.834Z,5.70
2017-12-08T18:17:06.158Z,5.70
2017-12-08T18:19:34.505Z,5.30
2017-12-08T18:22:02.795Z,5.60
2017-12-08T18:24:31.825Z,5.60
2017-12-08T18:27:00.898Z,5.50
2017-12-08T18:29:29.203Z,5.50
2017-12-08T18:31:57.510Z,5.50
2017-12-08T18:37:04.946Z,5.50
2017-12-08T18:39:33.976Z,5.50
2017-12-08T18:42:03.050Z,5.50
2017-12-08T18:44:32.146Z,5.40
2017-12-08T18:47:01.206Z,5.40
2017-12-08T18:49:29.497Z,5.40
2017-12-08T18:51:57.757Z,5.40
2017-12-08T18:54:26.072Z,5.40
2017-12-08T18:56:55.126Z,5.50
2017-12-08T18:59:23.433Z,5.40
2017-12-08T19:01:51.715Z,5.50
2017-12-08T19:04:20.787Z,5.50
2017-12-08T19:06:49.083Z,5.50
2017-12-08T19:09:17.425Z,5.40
2017-12-08T19:11:46.564Z,5.20
2017-12-08T19:14:15.621Z,5.10
2017-12-08T19:16:43.907Z,5.00
2017-12-08T19:19:12.209Z,5.00
2017-12-08T19:21:40.494Z,4.90
2017-12-08T19:24:08.807Z,4.80
2017-12-08T19:26:37.818Z,4.70
2017-12-08T19:29:06.140Z,4.70
2017-12-08T19:31:34.419Z,4.70
2017-12-08T19:34:03.194Z,4.70
2017-12-08T19:36:31.548Z,4.70
2017-12-08T19:38:59.821Z,4.80
2017-12-08T19:41:28.408Z,4.80
2017-12-08T19:43:56.681Z,4.90
2017-12-08T19:46:24.986Z,4.90
2017-12-08T19:48:53.264Z,5.00
2017-12-08T19:51:21.646Z,5.00
2017-12-08T19:53:49.956Z,5.10
2017-12-08T19:56:19.096Z,5.10
2017-12-08T19:58:47.386Z,5.10
2017-12-08T20:01:16.975Z,5.10
2017-12-08T20:03:45.257Z,5.20
2017-12-08T20:06:15.519Z,5.10
2017-12-08T20:08:43.883Z,5.10
2017-12-08T20:11:14.766Z,5.10
2017-12-08T20:13:44.144Z,5.10
2017-12-08T20:16:12.598Z,5.10
2017-12-08T20:18:40.882Z,5.10
2017-12-08T20:21:10.151Z,5.10
2017-12-08T20:23:50.730Z,5.10
2017-12-08T20:26:20.123Z,5.00
2017-12-08T20:31:48.479Z,5.00
2017-12-08T20:34:31.454Z,4.90
2017-12-08T20:37:03.941Z,4.80
2017-12-08T20:39:32.223Z,4.70
2017-12-08T20:42:00.530Z,4.70
2017-12-08T20:44:28.882Z,4.70
2017-12-08T20:46:57.225Z,4.60
2017-12-08T20:49:25.532Z,4.70
2017-12-08T20:51:55.747Z,4.70
2017-12-08T20:54:24.120Z,4.70
2017-12-08T20:56:52.413Z,4.70
2017-12-08T20:59:26.978Z,4.80
2017-12-08T21:01:55.260Z,4.70
2017-12-08T21:04:26.564Z,4.80
2017-12-08T21:06:54.831Z,4.70
2017-12-08T21:09:23.110Z,4.70
2017-12-08T21:12:02.665Z,4.70
2017-12-08T21:14:31.830Z,4.80
2017-12-08T21:17:02.087Z,4.70
2017-12-08T21:19:30.432Z,4.80
2017-12-08T21:21:59.052Z,4.80
2017-12-08T21:24:27.368Z,4.80
2017-12-08T21:26:55.651Z,4.80
2017-12-08T21:29:25.515Z,4.90
2017-12-08T21:31:53.821Z,4.90
2017-12-08T21:34:23.085Z,4.90
2017-12-08T21:36:57.013Z,4.90
2017-12-08T21:39:25.328Z,4.90
2017-12-08T21:41:53.606Z,4.90
2017-12-08T21:44:22.661Z,4.80
2017-12-08T21:46:50.965Z,4.80
2017-12-08T21:49:19.267Z,4.80
2017-12-08T21:51:48.345Z,4.70
2017-12-08T21:54:16.607Z,4.70
2017-12-08T21:56:44.911Z,4.70
2017-12-08T21:59:14.928Z,4.80
2017-12-08T22:01:43.226Z,4.70
2017-12-08T22:04:11.561Z,4.80
2017-12-08T22:06:39.883Z,4.80
2017-12-08T22:09:08.953Z,4.80
2017-12-08T22:11:37.257Z,4.80
2017-12-08T22:14:06.334Z,4.80
2017-12-08T22:16:34.626Z,4.80
2017-12-08T22:19:03.760Z,4.70
2017-12-08T22:21:32.809Z,4.70
2017-12-08T22:24:01.064Z,4.70
2017-12-08T22:26:29.375Z,4.70
2017-12-08T22:28:58.418Z,4.70
2017-12-08T22:31:26.729Z,4.70
2017-12-08T22:33:55.046Z,4.60
2017-12-08T22:36:31.577Z,4.60
2017-12-08T22:38:59.860Z,4.60
2017-12-08T22:41:28.886Z,4.60
2017-12-08T22:43:57.242Z,4.60
2017-12-08T22:46:26.333Z,4.70
2017-12-08T22:48:54.649Z,4.60
2017-12-08T22:51:22.917Z,4.70
2017-12-08T22:53:51.243Z,4.60
2017-12-08T22:56:19.521Z,4.60
2017-12-08T22:58:47.820Z,4.50
2017-12-08T23:01:16.912Z,4.50
2017-12-08T23:03:45.183Z,4.50
2017-12-08T23:06:13.483Z,4.50
2017-12-08T23:08:42.506Z,4.40
2017-12-08T23:11:23.751Z,4.40
2017-12-08T23:13:52.785Z,4.40
2017-12-08T23:16:26.785Z,4.30
2017-12-08T23:18:55.073Z,4.30
2017-12-08T23:21:23.431Z,4.30
2017-12-08T23:23:51.699Z,4.40
2017-12-08T23:29:17.889Z,4.50
2017-12-08T23:31:46.942Z,4.60
2017-12-08T23:34:15.982Z,4.60
2017-12-08T23:36:44.260Z,4.60
2017-12-08T23:39:12.543Z,4.70
2017-12-08T23:41:40.834Z,4.70
2017-12-08T23:44:09.240Z,4.70
2017-12-08T23:46:37.513Z,4.60
2017-12-08T23:49:05.875Z,4.60
2017-12-08T23:51:34.186Z,4.50
2017-12-08T23:54:02.452Z,4.50
2017-12-08T23:56:30.798Z,4.40
2017-12-08T23:58:59.080Z,4.40
